Latest Weather Observations for Kalgoorlie-Boulder

IDW60801

Issued at 12:33 pm WST Thursday 28 July 2016 (issued every 30 minutes, with the page automatically refreshed every 10 minutes)

About weather observations | Map of weather stations | Latest weather observations for WA | Other Formats
Station Details ID: 012038 Name: KALGOORLIE-BOULDER AIRPORT Lat: -30.78 Lon: 121.45 Height: 365.3 m
Data from the previous 72 hours. | See also: Recent months at Kalgoorlie-Boulder
Date/Time
WST
Temp
°C
App
Temp
°C
Dew
Point
°C
Rel
Hum
%
Delta-T
°C
Wind Press
QNH
hPa
Press
MSL
hPa
Rain since
9am
mm
Dir  Spd
km/h
Gust
km/h
Spd
kts
Gust
kts
28/12:30pm 19.0 14.0 1.3 30 8.1 NNW 17 30 9 16 1023.0 - 0.0
28/12:00pm 18.7 14.6 2.4 33 7.6 NW 13 20 7 11 1023.6 1023.7 0.0
28/11:30am 17.3 12.7 3.5 39 6.5 NNW 17 24 9 13 1024.1 - 0.0
28/11:00am 17.1 12.0 3.2 39 6.5 NNW 19 30 10 16 1024.6 - 0.0
28/10:30am 16.7 11.8 4.3 43 5.9 N 19 26 10 14 1024.9 - 0.0
28/10:00am 15.5 11.1 4.8 49 5.1 N 17 24 9 13 1025.1 - 0.0
28/09:30am 13.2 10.4 5.1 58 3.8 N 9 17 5 9 1025.8 - 0.0
28/09:00am 12.0 8.9 5.4 64 3.1 N 11 13 6 7 1025.5 1025.7 0.0
28/08:30am 11.2 8.1 5.7 69 2.6 N 11 15 6 8 1025.6 - 0.0
28/08:00am 10.2 7.9 5.7 73 2.1 N 7 9 4 5 1025.1 - 0.0
28/07:30am 9.4 7.0 5.3 75 1.9 N 7 9 4 5 1024.9 - 0.0
28/07:00am 9.4 6.6 5.0 74 2.0 N 9 13 5 7 1024.5 - 0.0
28/06:30am 9.3 6.1 4.9 74 2.0 N 11 17 6 9 1024.4 - 0.0
28/06:00am 8.3 5.0 4.7 78 1.6 N 11 15 6 8 1024.4 1024.6 0.0
28/05:30am 8.4 5.5 4.9 78 1.6 N 9 13 5 7 1024.3 - 0.0
28/05:00am 9.0 5.8 5.0 76 1.8 N 11 15 6 8 1024.2 - 0.0
28/04:30am 9.2 6.4 5.0 75 1.9 N 9 11 5 6 1024.2 - 0.0
28/04:00am 9.6 6.8 5.2 74 2.0 N 9 11 5 6 1024.6 - 0.0
28/03:30am 10.3 7.6 5.6 72 2.2 N 9 11 5 6 1024.7 - 0.0
28/03:00am 10.6 7.9 5.7 72 2.3 NNE 9 11 5 6 1024.9 1025.1 0.0
28/02:30am 10.9 8.2 5.6 70 2.5 N 9 13 5 7 1025.1 - 0.0
28/02:00am 11.2 8.2 5.9 70 2.5 N 11 17 6 9 1025.3 - 0.0
28/01:30am 10.9 8.7 6.0 72 2.3 N 7 11 4 6 1025.6 - 0.0
28/01:00am 11.6 9.0 6.1 69 2.6 NNE 9 13 5 7 1025.7 - 0.0
28/12:30am 11.8 9.2 6.1 68 2.7 NNE 9 13 5 7 1025.4 - 0.0
28/12:00am 12.3 9.7 6.0 65 3.0 NNE 9 13 5 7 1025.8 1026.0 0.0
 
Date/Time
WST
Temp
°C
App
Temp
°C
Dew
Point
°C
Rel
Hum
%
Delta-T
°C
Wind Press
QNH
hPa
Press
MSL
hPa
Rain since
9am
mm
Dir  Spd
km/h
Gust
km/h
Spd
kts
Gust
kts
27/11:30pm 12.8 10.2 6.1 64 3.2 NNE 9 11 5 6 1026.4 - 0.0
27/11:00pm 12.5 10.3 6.3 66 3.0 N 7 9 4 5 1026.5 - 0.0
27/10:30pm 11.9 10.7 6.5 69 2.6 NNE 2 7 1 4 1026.3 - 0.0
27/10:00pm 12.0 9.7 5.9 66 2.9 NNE 7 9 4 5 1026.5 - 0.0
27/09:30pm 12.2 10.7 6.6 68 2.7 N 4 7 2 4 1026.7 - 0.0
27/09:00pm 13.3 12.0 5.8 60 3.6 NNE 2 7 1 4 1026.8 1027.0 0.0
27/08:30pm 13.4 11.1 5.9 60 3.6 N 7 7 4 4 1026.7 - 0.0
27/08:00pm 13.5 11.2 5.8 59 3.7 NNE 7 9 4 5 1025.7 - 0.0
27/07:30pm 12.5 10.6 6.5 67 2.9 NE 6 7 3 4 1026.1 - 0.0
27/07:00pm 13.2 11.2 6.9 65 3.1 NE 7 9 4 5 1026.3 - 0.0
27/06:30pm 14.0 12.0 6.9 62 3.5 NE 7 9 4 5 1025.9 - 0.0
27/06:00pm 14.6 12.4 6.4 58 4.0 NE 7 9 4 5 1025.8 1026.0 0.0
27/05:30pm 15.5 13.2 5.6 51 4.8 NNE 7 11 4 6 1025.6 - 0.0
27/05:00pm 16.3 13.6 5.4 48 5.3 N 9 13 5 7 1025.5 - 0.0
27/04:30pm 17.0 13.4 5.0 45 5.8 N 13 17 7 9 1025.7 - 0.0
27/04:00pm 17.4 14.7 5.6 45 5.8 N 9 15 5 8 1025.6 - 0.0
27/03:30pm 17.7 14.6 5.5 44 6.0 N 11 17 6 9 1025.9 - 0.0
27/03:00pm 17.4 14.3 5.6 45 5.8 NNE 11 17 6 9 1025.8 1026.0 0.0
27/02:30pm 17.3 13.8 5.5 45 5.8 N 13 20 7 11 1025.8 - 0.0
27/02:00pm 18.2 15.9 5.7 44 6.2 NNE 7 20 4 11 1025.9 - 0.0
27/01:30pm 17.1 13.7 5.7 47 5.6 NNE 13 17 7 9 1026.4 - 0.0
27/01:00pm 17.3 14.7 6.0 47 5.6 N 9 17 5 9 1026.6 - 0.0
27/12:30pm 16.3 13.3 6.2 51 5.0 N 11 17 6 9 1027.0 - 0.0
27/12:00pm 16.0 13.1 6.3 52 4.8 NNE 11 17 6 9 1027.7 1027.9 0.0
27/11:30am 16.0 12.7 6.5 53 4.7 N 13 20 7 11 1028.2 - 0.0
27/11:00am 15.0 12.6 6.9 58 4.0 ENE 9 17 5 9 1028.9 - 0.0
27/10:30am 14.0 10.4 6.6 61 3.6 NE 15 20 8 11 1029.2 - 0.0
27/10:00am 13.9 10.4 7.0 63 3.4 NE 15 19 8 10 1029.5 - 0.0
27/09:30am 12.7 9.9 7.0 68 2.8 NE 11 17 6 9 1029.7 - 0.0
27/09:00am 11.4 9.2 6.4 71 2.4 N 7 11 4 6 1029.9 1030.1 0.2
27/08:30am 9.4 8.4 5.7 78 1.7 CALM 0 0 0 0 1029.5 - 0.2
27/08:00am 6.8 5.7 5.0 88 0.8 CALM 0 0 0 0 1029.2 - 0.2
27/07:30am 4.5 3.1 3.8 95 0.3 CALM 0 0 0 0 1029.3 - 0.2
27/07:00am 3.9 2.1 3.2 95 0.3 SW 2 7 1 4 1029.3 - 0.2
27/06:30am 3.7 2.2 3.2 97 0.2 CALM 0 0 0 0 1028.7 - 0.2
27/06:00am 3.4 1.9 2.9 97 0.2 CALM 0 0 0 0 1028.2 1028.4 0.2
27/05:30am 3.2 1.6 2.5 95 0.3 CALM 0 0 0 0 1028.1 - 0.2
27/05:00am 3.5 1.9 2.5 93 0.4 CALM 0 0 0 0 1028.0 - 0.2
27/04:30am 4.2 2.7 3.2 93 0.4 CALM 0 0 0 0 1028.1 - 0.2
27/04:00am 4.4 1.8 3.4 93 0.4 S 6 7 3 4 1027.6 - 0.2
27/03:30am 4.9 2.2 3.7 92 0.5 S 7 9 4 5 1027.5 - 0.2
27/03:00am 5.0 2.5 3.8 92 0.5 S 6 7 3 4 1027.5 1027.7 0.2
27/02:30am 5.3 4.0 3.9 91 0.6 CALM 0 0 0 0 1027.7 - 0.2
27/02:00am 5.9 4.6 4.3 89 0.7 CALM 0 0 0 0 1027.7 - 0.2
27/01:30am 5.7 4.0 4.1 89 0.7 S 2 6 1 3 1027.8 - 0.2
27/01:00am 7.4 5.1 4.9 84 1.1 S 6 7 3 4 1027.8 - 0.2
27/12:30am 6.7 4.1 4.4 85 1.0 S 7 9 4 5 1027.8 - 0.2
27/12:00am 7.1 4.8 4.6 84 1.1 S 6 7 3 4 1027.8 1028.0 0.2
 
Date/Time
WST
Temp
°C
App
Temp
°C
Dew
Point
°C
Rel
Hum
%
Delta-T
°C
Wind Press
QNH
hPa
Press
MSL
hPa
Rain since
9am
mm
Dir  Spd
km/h
Gust
km/h
Spd
kts
Gust
kts
26/11:30pm 6.1 4.7 3.8 85 1.0 CALM 0 0 0 0 1027.9 - 0.2
26/11:00pm 7.5 5.5 4.6 82 1.3 NNE 4 6 2 3 1027.9 - 0.2
26/10:30pm 8.3 6.3 4.5 77 1.7 SSE 4 7 2 4 1027.9 - 0.2
26/10:00pm 8.9 5.5 4.2 72 2.1 S 11 11 6 6 1027.7 - 0.2
26/09:30pm 9.0 6.0 4.3 72 2.1 SSE 9 9 5 5 1027.8 - 0.2
26/09:00pm 9.9 7.3 4.4 68 2.5 SSE 7 7 4 4 1027.8 1028.0 0.2
26/08:30pm 9.8 7.3 4.5 69 2.4 S 7 9 4 5 1027.5 - 0.2
26/08:00pm 11.0 8.1 4.7 65 2.9 SSE 9 11 5 6 1027.5 - 0.2
26/07:30pm 11.3 8.8 4.5 63 3.1 SE 7 9 4 5 1027.3 - 0.2
26/07:00pm 11.2 8.7 4.9 65 2.9 SE 7 9 4 5 1027.0 - 0.2
26/06:30pm 12.7 9.3 4.2 56 3.9 SE 11 13 6 7 1026.7 - 0.2
26/06:00pm 13.0 10.0 4.1 54 4.1 SSW 9 11 5 6 1026.4 1026.5 0.2
26/05:30pm 13.8 10.9 4.4 53 4.4 SSW 9 9 5 5 1026.1 - 0.2
26/05:00pm 15.3 11.9 4.0 47 5.3 SW 11 15 6 8 1025.8 - 0.2
26/04:30pm 16.6 13.5 3.6 42 6.1 S 9 13 5 7 1025.7 - 0.2
26/04:00pm 16.9 13.0 3.2 40 6.4 SSW 13 17 7 9 1025.6 - 0.2
26/03:30pm 17.2 13.3 3.3 39 6.5 SSW 13 20 7 11 1025.6 - 0.2
26/03:00pm 16.8 12.3 2.4 38 6.6 SSW 15 22 8 12 1025.6 1025.8 0.2
26/02:30pm 16.6 12.5 2.4 38 6.5 SSW 13 20 7 11 1025.4 - 0.2
26/02:00pm 16.5 12.0 2.2 38 6.5 SSW 15 22 8 12 1025.5 - 0.2
26/01:30pm 16.1 12.3 3.7 43 5.8 W 13 24 7 13 1025.6 - 0.2
26/01:00pm 15.3 10.6 3.4 45 5.5 SSW 17 24 9 13 1025.8 - 0.2
26/12:30pm 15.3 10.6 3.1 44 5.6 SSW 17 24 9 13 1026.3 - 0.0
26/12:00pm 14.5 10.1 2.8 45 5.3 SSW 15 24 8 13 1026.7 1026.9 0.0
26/11:30am 14.0 9.2 2.7 46 5.1 SW 17 20 9 11 1027.0 - 0.0
26/11:00am 13.6 9.1 4.1 52 4.4 SW 17 24 9 13 1027.5 - 0.0
26/10:30am 12.1 7.2 4.0 57 3.7 SW 19 26 10 14 1027.8 - 0.0
26/10:00am 11.2 6.7 4.4 63 3.1 SW 17 24 9 13 1028.1 - 0.0
26/09:30am 9.6 4.6 4.5 70 2.3 SW 20 28 11 15 1028.2 - 0.0
26/09:00am 8.7 3.7 4.7 76 1.8 SW 20 28 11 15 1028.1 1028.3 0.0
26/08:30am 6.6 2.1 4.1 84 1.1 SW 17 20 9 11 1028.0 - 0.0
26/08:00am 5.6 3.0 4.2 91 0.6 WSW 7 9 4 5 1027.6 - 0.0
26/07:30am 3.6 2.0 2.4 92 0.5 CALM 0 0 0 0 1027.2 - 0.0
26/07:00am 2.2 -0.3 1.4 94 0.3 W 4 6 2 3 1026.7 - 0.0
26/06:30am 1.7 -1.3 0.6 92 0.4 SW 6 9 3 5 1026.4 - 0.0
26/06:00am 3.3 0.0 2.3 93 0.4 SW 9 13 5 7 1026.3 1026.4 0.0
26/05:30am 3.5 -0.5 2.8 95 0.3 SW 13 17 7 9 1026.1 - 0.0
26/05:00am 3.1 -0.2 2.4 95 0.3 SW 9 15 5 8 1026.3 - 0.0
26/04:30am 1.6 -0.2 1.1 96 0.2 CALM 0 0 0 0 1025.6 - 0.0
26/04:00am 2.0 -0.6 1.2 94 0.3 N 4 7 2 4 1025.7 - 0.0
26/03:30am 2.5 0.8 2.0 96 0.2 CALM 0 0 0 0 1025.7 - 0.0
26/03:00am 3.7 0.8 2.7 93 0.4 W 7 11 4 6 1025.4 1025.6 0.0
26/02:30am 3.0 1.3 2.0 93 0.4 CALM 0 7 0 4 1025.6 - 0.0
26/02:00am 3.4 0.1 2.2 92 0.5 SW 9 13 5 7 1025.5 - 0.0
26/01:30am 4.2 1.3 2.7 90 0.6 SW 7 9 4 5 1025.6 - 0.0
26/01:00am 3.8 0.1 2.6 92 0.5 SW 11 13 6 7 1025.8 - 0.0
26/12:30am 4.5 3.0 2.8 89 0.7 CALM 0 0 0 0 1025.8 - 0.0
26/12:00am 4.9 3.0 3.0 87 0.8 S 2 6 1 3 1025.7 1025.9 0.0
 
Date/Time
WST
Temp
°C
App
Temp
°C
Dew
Point
°C
Rel
Hum
%
Delta-T
°C
Wind Press
QNH
hPa
Press
MSL
hPa
Rain since
9am
mm
Dir  Spd
km/h
Gust
km/h
Spd
kts
Gust
kts
25/11:30pm 6.2 4.9 3.9 85 1.0 CALM 0 0 0 0 1025.7 - 0.0
25/11:00pm 5.9 3.2 3.6 85 1.0 W 7 11 4 6 1025.8 - 0.0
25/10:30pm 7.7 4.5 3.3 74 1.9 NW 9 11 5 6 1025.7 - 0.0
25/10:00pm 8.0 4.9 3.4 73 2.0 WNW 9 11 5 6 1025.8 - 0.0
25/09:30pm 7.2 4.1 3.5 77 1.6 N 9 9 5 5 1025.7 - 0.0
25/09:00pm 7.3 4.3 3.9 79 1.5 NNW 9 11 5 6 1025.7 1025.9 0.0
25/08:30pm 8.7 6.3 4.5 75 1.9 W 6 7 3 4 1025.8 - 0.0
25/08:00pm 7.6 5.6 4.2 79 1.5 SE 4 7 2 4 1025.6 - 0.0
25/07:30pm 8.2 6.9 4.1 75 1.8 CALM 0 4 0 2 1025.5 - 0.0
25/07:00pm 8.7 6.7 4.5 75 1.9 N 4 7 2 4 1025.2 - 0.0
25/06:30pm 10.2 7.9 4.7 68 2.5 N 6 7 3 4 1024.9 - 0.0
25/06:00pm 10.7 9.5 4.8 67 2.7 CALM 0 0 0 0 1024.8 1025.0 0.0
25/05:30pm 12.5 11.3 4.8 59 3.6 CALM 0 0 0 0 1024.7 - 0.0
25/05:00pm 13.8 12.6 4.4 53 4.4 CALM 0 0 0 0 1024.5 - 0.0
25/04:30pm 15.2 13.7 4.9 50 4.9 SSW 2 7 1 4 1024.4 - 0.0
25/04:00pm 14.5 12.4 4.0 49 4.9 S 4 9 2 5 1024.4 - 0.0
25/03:30pm 14.6 11.5 3.5 47 5.1 SSW 9 13 5 7 1024.3 - 0.0
25/03:00pm 14.5 11.4 3.7 48 5.0 SSW 9 15 5 8 1024.3 1024.5 0.0
25/02:30pm 14.9 12.4 3.7 47 5.2 SW 6 11 3 6 1024.4 - 0.0
25/02:00pm 13.7 10.8 2.8 47 4.9 SSE 7 17 4 9 1024.4 - 0.0
25/01:30pm 13.7 9.5 1.6 44 5.3 SSW 13 19 7 10 1024.5 - 0.0
25/01:00pm 13.7 10.5 2.8 47 4.9 S 9 17 5 9 1024.8 - 0.0

Other Formats:

Comma delimited format used in spreadsheet applications
http://www.bom.gov.au/fwo/IDW60801/IDW60801.94637.axf

JavaScript Object Notation format (JSON) in row-major order
http://www.bom.gov.au/fwo/IDW60801/IDW60801.94637.json